Time;durP1;ratioP1;P1;durP2;ratioP2;P2;SDS_P1;SDS_P2;PMS_P1;PMS_P2;Temp;Humidity;BMP_temperature;BMP_pressure;BME280_temperature;BME280_humidity;BME280_pressure;Samples;Min_cycle;Max_cycle;Signal;HPM_P1;HPM_P2
2022/09/19 00:01:10;;;;;;;2.15;0.80;;;;;;;;;;5093270;28;20020;-73
2022/09/19 00:03:40;;;;;;;1.08;0.70;;;;;;;;;;5093595;28;20032;-73
2022/09/19 00:06:09;;;;;;;3.35;1.10;;;;;;;;;;5092010;28;20448;-72
2022/09/19 00:08:36;;;;;;;3.00;0.73;;;;;;;;;;5093115;28;20483;-73
2022/09/19 00:11:02;;;;;;;1.67;0.77;;;;;;;;;;5093502;28;20100;-72
2022/09/19 00:13:29;;;;;;;1.58;0.80;;;;;;;;;;5093570;28;20031;-72
2022/09/19 00:15:55;;;;;;;2.15;0.80;;;;;;;;;;5092050;28;20382;-73
2022/09/19 00:18:21;;;;;;;1.88;0.65;;;;;;;;;;5093462;28;20024;-73
2022/09/19 00:20:49;;;;;;;1.58;0.75;;;;;;;;;;5093506;28;20012;-73
2022/09/19 00:26:01;;;;;;;0.98;0.70;;;;;;;;;;5093482;28;20435;-72
2022/09/19 00:28:28;;;;;;;0.75;0.65;;;;;;;;;;5093465;28;20035;-72
2022/09/19 00:30:55;;;;;;;1.13;0.68;;;;;;;;;;5092905;28;20073;-73
2022/09/19 00:33:21;;;;;;;1.02;0.60;;;;;;;;;;5093287;28;20170;-73
2022/09/19 00:35:54;;;;;;;3.95;1.00;;;;;;;;;;5093257;28;20522;-72
2022/09/19 00:38:24;;;;;;;2.75;0.80;;;;;;;;;;5092845;28;20496;-73
2022/09/19 00:40:50;;;;;;;1.13;0.60;;;;;;;;;;5093214;28;20020;-73
2022/09/19 00:43:18;;;;;;;0.95;0.73;;;;;;;;;;5093033;28;20012;-73
2022/09/19 00:45:44;;;;;;;2.05;1.08;;;;;;;;;;5093360;28;20032;-72
2022/09/19 00:48:11;;;;;;;1.98;0.90;;;;;;;;;;5093582;28;20024;-72
2022/09/19 00:50:39;;;;;;;0.98;0.60;;;;;;;;;;5092741;28;20033;-73
2022/09/19 00:53:08;;;;;;;1.38;0.70;;;;;;;;;;5095578;28;20073;-72
2022/09/19 00:55:36;;;;;;;0.93;0.68;;;;;;;;;;5096970;28;20361;-72
2022/09/19 00:58:28;;;;;;;2.22;1.10;;;;;;;;;;5096460;28;20036;-73
2022/09/19 01:00:55;;;;;;;1.48;0.65;;;;;;;;;;5094035;28;20040;-73
2022/09/19 01:03:24;;;;;;;2.85;0.90;;;;;;;;;;5096842;28;20027;-73
2022/09/19 01:06:04;;;;;;;1.90;1.05;;;;;;;;;;5096075;28;20048;-72
2022/09/19 01:08:39;;;;;;;2.72;0.90;;;;;;;;;;5096783;28;20470;-72
2022/09/19 01:11:24;;;;;;;1.48;1.00;;;;;;;;;;5095291;28;20046;-72
2022/09/19 01:14:09;;;;;;;1.10;0.60;;;;;;;;;;5095345;28;20032;-72
2022/09/19 01:16:42;;;;;;;2.92;1.00;;;;;;;;;;5096638;28;20020;-72
2022/09/19 01:19:25;;;;;;;1.85;0.85;;;;;;;;;;5096030;28;20028;-72
2022/09/19 01:21:58;;;;;;;2.20;0.70;;;;;;;;;;5096517;28;20473;-72
2022/09/19 01:24:24;;;;;;;;;;;;;;;;;;5097049;28;20027;-72
2022/09/19 01:27:00;;;;;;;1.90;0.73;;;;;;;;;;5095933;28;19912;-72
2022/09/19 01:29:31;;;;;;;1.80;0.80;;;;;;;;;;5096278;28;20046;-73
2022/09/19 01:31:58;;;;;;;2.58;0.88;;;;;;;;;;5096292;28;20108;-73
2022/09/19 01:34:28;;;;;;;3.65;1.10;;;;;;;;;;5094567;28;20024;-73
2022/09/19 01:37:03;;;;;;;1.33;0.80;;;;;;;;;;5096609;28;20069;-73
2022/09/19 01:39:31;;;;;;;2.55;1.05;;;;;;;;;;5095866;28;20467;-73
2022/09/19 01:42:00;;;;;;;2.15;1.00;;;;;;;;;;5094858;28;20016;-73
2022/09/19 01:44:27;;;;;;;3.70;0.93;;;;;;;;;;5096027;28;20564;-72
2022/09/19 01:47:00;;;;;;;1.77;1.02;;;;;;;;;;5095540;28;20107;-73
2022/09/19 01:49:45;;;;;;;4.22;1.40;;;;;;;;;;5096079;28;20012;-72
2022/09/19 01:52:23;;;;;;;2.45;0.90;;;;;;;;;;5096189;28;20020;-72
2022/09/19 01:54:58;;;;;;;2.25;0.90;;;;;;;;;;5095579;28;20020;-73
2022/09/19 01:57:32;;;;;;;1.75;0.90;;;;;;;;;;5094520;28;20024;-73
2022/09/19 02:00:12;;;;;;;2.10;0.85;;;;;;;;;;5096056;28;20110;-73
2022/09/19 02:02:52;;;;;;;2.17;0.90;;;;;;;;;;5095329;28;20032;-73
2022/09/19 02:05:21;;;;;;;0.80;0.75;;;;;;;;;;5095446;28;20052;-72
2022/09/19 02:08:00;;;;;;;0.90;0.80;;;;;;;;;;5095319;28;20032;-72
2022/09/19 02:10:33;;;;;;;1.95;0.80;;;;;;;;;;5095530;28;20038;-73
2022/09/19 02:13:00;;;;;;;1.05;0.68;;;;;;;;;;5095637;28;20034;-72
2022/09/19 02:15:30;;;;;;;2.22;1.08;;;;;;;;;;5094986;28;20476;-72
2022/09/19 02:18:04;;;;;;;5.50;2.78;;;;;;;;;;5095314;28;20066;-72
2022/09/19 02:20:32;;;;;;;7.38;2.60;;;;;;;;;;5095343;28;20016;-72
2022/09/19 02:23:25;;;;;;;6.70;2.47;;;;;;;;;;5095049;28;20097;-72
2022/09/19 02:25:52;;;;;;;8.13;2.88;;;;;;;;;;5092424;28;20066;-72
2022/09/19 02:28:22;;;;;;;9.48;2.90;;;;;;;;;;5094094;28;20442;-72
2022/09/19 02:30:48;;;;;;;9.70;3.67;;;;;;;;;;5094634;28;20024;-72
2022/09/19 02:33:15;;;;;;;9.35;3.67;;;;;;;;;;5095018;28;20031;-72
2022/09/19 02:35:41;;;;;;;12.80;3.88;;;;;;;;;;5093327;28;20028;-73
2022/09/19 02:38:16;;;;;;;5.90;2.47;;;;;;;;;;5094965;28;20031;-73
2022/09/19 02:41:00;;;;;;;9.63;3.10;;;;;;;;;;5095000;28;20480;-72
2022/09/19 02:43:29;;;;;;;10.43;3.83;;;;;;;;;;5094375;28;20066;-72
2022/09/19 02:45:57;;;;;;;16.08;6.28;;;;;;;;;;5094776;28;20024;-72
2022/09/19 02:48:30;;;;;;;20.58;7.55;;;;;;;;;;5094982;28;20020;-72
2022/09/19 02:51:04;;;;;;;19.95;8.25;;;;;;;;;;5092982;28;20024;-72
2022/09/19 02:53:33;;;;;;;23.75;8.40;;;;;;;;;;5094695;28;20065;-72
2022/09/19 02:56:02;;;;;;;22.63;9.85;;;;;;;;;;5094589;28;20027;-72
2022/09/19 02:58:31;;;;;;;15.27;6.50;;;;;;;;;;5094052;28;20059;-73
2022/09/19 03:01:03;;;;;;;5.78;2.58;;;;;;;;;;5094856;28;20020;-72
2022/09/19 03:06:18;;;;;;;4.95;1.55;;;;;;;;;;5094239;28;20055;-72
2022/09/19 03:08:46;;;;;;;5.43;1.70;;;;;;;;;;5094325;28;20461;-72
2022/09/19 03:11:16;;;;;;;3.67;1.48;;;;;;;;;;5093884;28;20036;-72
2022/09/19 03:13:43;;;;;;;3.55;1.58;;;;;;;;;;5094366;28;20048;-72
2022/09/19 03:16:20;;;;;;;4.43;1.48;;;;;;;;;;5093745;28;20400;-72
2022/09/19 03:18:47;;;;;;;8.45;2.90;;;;;;;;;;5093684;28;20048;-72
2022/09/19 03:21:13;;;;;;;12.57;4.32;;;;;;;;;;5094183;28;20020;-72
2022/09/19 03:23:50;;;;;;;30.50;9.57;;;;;;;;;;5094081;28;20379;-72
2022/09/19 03:26:21;;;;;;;18.98;6.90;;;;;;;;;;5093822;28;20108;-72
2022/09/19 03:28:47;;;;;;;17.58;5.70;;;;;;;;;;5094005;28;20016;-72
2022/09/19 03:31:14;;;;;;;21.23;6.03;;;;;;;;;;5093982;28;20511;-73
2022/09/19 03:33:40;;;;;;;17.50;6.55;;;;;;;;;;5093565;28;20094;-73
2022/09/19 03:36:08;;;;;;;16.88;6.80;;;;;;;;;;5094005;28;20024;-73
2022/09/19 03:38:40;;;;;;;13.20;4.93;;;;;;;;;;5093895;28;20081;-73
2022/09/19 03:41:06;;;;;;;8.80;3.55;;;;;;;;;;5093467;28;20020;-73
2022/09/19 03:43:32;;;;;;;10.57;3.17;;;;;;;;;;5093819;28;20377;-73
2022/09/19 03:45:58;;;;;;;8.57;2.95;;;;;;;;;;5093531;28;20034;-73
2022/09/19 03:48:26;;;;;;;4.40;2.03;;;;;;;;;;5094024;28;20024;-73
2022/09/19 03:50:53;;;;;;;3.83;1.60;;;;;;;;;;5093717;28;20497;-72
2022/09/19 03:53:20;;;;;;;5.68;2.38;;;;;;;;;;5093321;28;20076;-72
2022/09/19 03:55:46;;;;;;;3.17;1.55;;;;;;;;;;5093737;28;20506;-73
2022/09/19 03:58:13;;;;;;;2.10;1.10;;;;;;;;;;5093608;28;20487;-73
2022/09/19 04:00:39;;;;;;;1.48;0.80;;;;;;;;;;5093265;28;20024;-73
2022/09/19 04:03:05;;;;;;;2.65;1.30;;;;;;;;;;5094059;28;20028;-73
2022/09/19 04:05:34;;;;;;;2.33;1.30;;;;;;;;;;5092152;28;20050;-73
2022/09/19 04:08:01;;;;;;;3.38;1.30;;;;;;;;;;5093342;28;20097;-73
2022/09/19 04:10:27;;;;;;;2.97;1.05;;;;;;;;;;5092330;28;20032;-73
2022/09/19 04:12:53;;;;;;;3.10;1.48;;;;;;;;;;5093613;28;20025;-73
2022/09/19 04:15:19;;;;;;;3.08;1.30;;;;;;;;;;5093081;28;20468;-73
2022/09/19 04:17:46;;;;;;;2.45;1.23;;;;;;;;;;5093409;28;20024;-73
2022/09/19 04:20:13;;;;;;;1.98;0.90;;;;;;;;;;5093496;28;20016;-73
2022/09/19 04:22:39;;;;;;;9.88;3.42;;;;;;;;;;5093040;28;20020;-73
2022/09/19 04:25:09;;;;;;;11.70;5.53;;;;;;;;;;5093771;28;20021;-73
2022/09/19 04:27:35;;;;;;;13.07;5.97;;;;;;;;;;5095390;28;20016;-73
2022/09/19 04:30:01;;;;;;;9.50;5.00;;;;;;;;;;5097015;28;20043;-73
2022/09/19 04:32:28;;;;;;;11.40;5.97;;;;;;;;;;5097328;28;20024;-73
2022/09/19 04:34:55;;;;;;;9.65;5.40;;;;;;;;;;5095998;28;20025;-73
2022/09/19 04:37:22;;;;;;;10.82;4.93;;;;;;;;;;5095726;28;20499;-73
2022/09/19 04:39:48;;;;;;;11.35;4.32;;;;;;;;;;5097272;28;20031;-73
2022/09/19 04:42:15;;;;;;;6.90;3.38;;;;;;;;;;5095626;28;20028;-73
2022/09/19 04:44:41;;;;;;;6.78;3.58;;;;;;;;;;5096356;28;20044;-72
2022/09/19 04:47:08;;;;;;;8.02;3.40;;;;;;;;;;5095665;28;20122;-73
2022/09/19 04:49:39;;;;;;;5.75;2.85;;;;;;;;;;5096693;28;20098;-73
2022/09/19 04:52:06;;;;;;;4.55;2.10;;;;;;;;;;5096694;28;20551;-73
2022/09/19 04:54:37;;;;;;;3.63;1.58;;;;;;;;;;5094842;28;20099;-73
2022/09/19 04:57:06;;;;;;;5.63;1.92;;;;;;;;;;5094450;28;20027;-73
2022/09/19 04:59:33;;;;;;;2.75;1.48;;;;;;;;;;5092750;28;20558;-73
2022/09/19 05:02:00;;;;;;;4.55;1.77;;;;;;;;;;5094103;28;20020;-73
2022/09/19 05:04:26;;;;;;;3.95;1.88;;;;;;;;;;5094673;28;20095;-75
2022/09/19 05:06:52;;;;;;;4.22;1.40;;;;;;;;;;5094966;28;20101;-72
2022/09/19 05:09:18;;;;;;;6.00;2.70;;;;;;;;;;5096685;28;20026;-74
2022/09/19 05:11:46;;;;;;;3.53;1.90;;;;;;;;;;5095952;28;20429;-73
2022/09/19 05:14:13;;;;;;;3.40;1.70;;;;;;;;;;5096282;28;20022;-72
2022/09/19 05:16:40;;;;;;;4.43;2.03;;;;;;;;;;5093735;28;20582;-75
2022/09/19 05:19:06;;;;;;;3.38;1.85;;;;;;;;;;5095573;28;20032;-73
2022/09/19 05:21:33;;;;;;;2.78;1.50;;;;;;;;;;5090563;28;20024;-73
2022/09/19 05:24:00;;;;;;;6.95;2.65;;;;;;;;;;5094541;28;20023;-75
2022/09/19 05:26:26;;;;;;;11.18;4.35;;;;;;;;;;5091810;28;20491;-73
2022/09/19 05:28:52;;;;;;;6.75;3.00;;;;;;;;;;5091924;28;20578;-74
2022/09/19 05:31:19;;;;;;;9.50;2.30;;;;;;;;;;5092509;28;20076;-73
2022/09/19 05:33:46;;;;;;;4.65;1.75;;;;;;;;;;5090925;28;20020;-75
2022/09/19 05:36:12;;;;;;;6.50;2.45;;;;;;;;;;5093063;28;20055;-73
2022/09/19 05:38:39;;;;;;;6.07;2.00;;;;;;;;;;5087614;28;20024;-74
2022/09/19 05:41:05;;;;;;;5.88;2.33;;;;;;;;;;5082803;28;20035;-72
2022/09/19 05:43:32;;;;;;;3.22;1.73;;;;;;;;;;5087588;28;20480;-72
2022/09/19 05:45:59;;;;;;;7.15;2.60;;;;;;;;;;5087145;28;20040;-73
2022/09/19 05:48:25;;;;;;;8.80;3.08;;;;;;;;;;5090219;28;20027;-73
2022/09/19 05:50:52;;;;;;;6.78;2.40;;;;;;;;;;5084914;28;20033;-73
2022/09/19 05:56:04;;;;;;;8.77;2.70;;;;;;;;;;5070734;28;20082;-72
2022/09/19 05:58:31;;;;;;;8.40;2.67;;;;;;;;;;5085353;28;20016;-69
2022/09/19 06:00:57;;;;;;;3.63;1.90;;;;;;;;;;5090596;28;20016;-71
2022/09/19 06:03:23;;;;;;;7.10;2.60;;;;;;;;;;5092639;28;20073;-73
2022/09/19 06:05:51;;;;;;;3.95;1.80;;;;;;;;;;5092627;28;20047;-76
2022/09/19 06:08:21;;;;;;;7.13;2.33;;;;;;;;;;5092035;28;20024;-73
2022/09/19 06:10:47;;;;;;;8.23;2.58;;;;;;;;;;5087762;28;20101;-76
2022/09/19 06:13:15;;;;;;;7.50;2.67;;;;;;;;;;5091466;28;20024;-72
2022/09/19 06:15:41;;;;;;;5.20;1.90;;;;;;;;;;5092502;28;20380;-73
2022/09/19 06:18:09;;;;;;;6.35;2.20;;;;;;;;;;5080954;28;20024;-74
2022/09/19 06:20:36;;;;;;;6.43;2.38;;;;;;;;;;5082018;28;20036;-74
2022/09/19 06:23:05;;;;;;;7.15;1.88;;;;;;;;;;5079250;28;20036;-71
2022/09/19 06:25:31;;;;;;;8.98;2.03;;;;;;;;;;5083815;28;20040;-72
2022/09/19 06:27:59;;;;;;;4.80;2.13;;;;;;;;;;5082887;28;20066;-73
2022/09/19 06:30:26;;;;;;;6.95;2.25;;;;;;;;;;5091582;28;20177;-72
2022/09/19 06:32:52;;;;;;;15.02;2.97;;;;;;;;;;5093708;28;20035;-72
2022/09/19 06:35:22;;;;;;;6.93;2.70;;;;;;;;;;5091554;28;20081;-72
2022/09/19 06:37:48;;;;;;;7.07;2.78;;;;;;;;;;5092836;28;20024;-72
2022/09/19 06:40:17;;;;;;;5.75;2.35;;;;;;;;;;5090001;28;20099;-73
2022/09/19 06:42:44;;;;;;;6.88;2.35;;;;;;;;;;5087939;28;20024;-70
2022/09/19 06:45:10;;;;;;;4.10;2.05;;;;;;;;;;5090965;28;20357;-72
2022/09/19 06:47:37;;;;;;;5.57;1.70;;;;;;;;;;5092793;28;20108;-72
2022/09/19 06:50:04;;;;;;;5.65;1.85;;;;;;;;;;5092439;28;20099;-72
2022/09/19 06:52:30;;;;;;;10.55;1.88;;;;;;;;;;5093542;28;20020;-73
2022/09/19 06:54:58;;;;;;;5.57;2.38;;;;;;;;;;5093400;28;20035;-74
2022/09/19 06:57:24;;;;;;;7.43;2.00;;;;;;;;;;5093428;28;20020;-73
2022/09/19 06:59:50;;;;;;;4.95;1.95;;;;;;;;;;5094038;28;20032;-72
2022/09/19 07:02:17;;;;;;;12.95;6.05;;;;;;;;;;5092325;28;20418;-73
2022/09/19 07:04:43;;;;;;;7.97;3.75;;;;;;;;;;5091468;28;20107;-72
2022/09/19 07:07:09;;;;;;;6.22;2.00;;;;;;;;;;5090053;28;20119;-71
2022/09/19 07:09:35;;;;;;;3.53;1.35;;;;;;;;;;5083088;28;20043;-71
2022/09/19 07:12:01;;;;;;;1.23;1.00;;;;;;;;;;5080275;28;20408;-71
2022/09/19 07:14:28;;;;;;;1.50;1.10;;;;;;;;;;5088843;28;20102;-72
2022/09/19 07:16:54;;;;;;;3.53;1.35;;;;;;;;;;5089579;28;20024;-72
2022/09/19 07:19:20;;;;;;;3.58;1.48;;;;;;;;;;5090924;28;20035;-73
2022/09/19 07:21:47;;;;;;;2.47;1.23;;;;;;;;;;5090707;28;20020;-73
2022/09/19 07:24:13;;;;;;;3.95;1.20;;;;;;;;;;5091043;28;20024;-73
2022/09/19 07:26:39;;;;;;;4.50;1.00;;;;;;;;;;5086120;28;20043;-74
2022/09/19 07:29:05;;;;;;;6.30;1.50;;;;;;;;;;5086143;28;20380;-72
2022/09/19 07:31:32;;;;;;;3.47;1.42;;;;;;;;;;5083072;28;20032;-72
2022/09/19 07:33:58;;;;;;;3.55;1.67;;;;;;;;;;5088899;28;20044;-72
2022/09/19 07:36:59;;;;;;;2.65;1.20;;;;;;;;;;5108810;27;20466;-73
2022/09/19 07:39:25;;;;;;;3.70;1.40;;;;;;;;;;5101285;28;20028;-74
2022/09/19 07:42:50;;;;;;;2.25;1.17;;;;;;;;;;5108665;27;20392;-73
2022/09/19 07:45:16;;;;;;;2.40;1.27;;;;;;;;;;5093971;28;20028;-73
2022/09/19 07:47:43;;;;;;;2.55;1.10;;;;;;;;;;5090461;28;20042;-72
2022/09/19 07:53:14;;;;;;;3.35;1.25;;;;;;;;;;5108916;27;20689;-71
2022/09/19 07:58:06;;;;;;;3.85;1.00;;;;;;;;;;5101790;27;20464;-71
2022/09/19 08:00:34;;;;;;;2.55;0.90;;;;;;;;;;5104397;28;20040;-73
2022/09/19 08:11:22;;;;;;;2.72;1.35;;;;;;;;;;5122886;27;20112;-71
2022/09/19 08:13:49;;;;;;;1.88;0.90;;;;;;;;;;5095795;28;20025;-71
2022/09/19 08:16:15;;;;;;;4.45;1.20;;;;;;;;;;5085110;28;20012;-69
2022/09/19 08:18:41;;;;;;;4.35;1.02;;;;;;;;;;5067173;28;20052;-71
2022/09/19 08:22:46;;;;;;;2.90;1.30;;;;;;;;;;5068263;28;20752;-72
2022/09/19 08:25:12;;;;;;;1.58;0.98;;;;;;;;;;5067774;28;20028;-70
2022/09/19 08:27:38;;;;;;;4.07;1.75;;;;;;;;;;5064514;28;20025;-69
2022/09/19 08:30:06;;;;;;;62.53;39.17;;;;;;;;;;5060666;28;20111;-70
2022/09/19 08:32:34;;;;;;;2.25;1.20;;;;;;;;;;5061260;28;20462;-69
2022/09/19 08:35:20;;;;;;;4.55;1.30;;;;;;;;;;5094269;27;20781;-74
2022/09/19 08:37:47;;;;;;;3.42;1.42;;;;;;;;;;5085825;28;20030;-73
2022/09/19 08:45:13;;;;;;;3.50;1.38;;;;;;;;;;5106999;27;20422;-70
2022/09/19 08:47:40;;;;;;;2.33;1.00;;;;;;;;;;5107273;28;20058;-69
2022/09/19 08:50:15;;;;;;;2.35;1.08;;;;;;;;;;5109040;28;20031;-73
2022/09/19 08:52:41;;;;;;;2.58;0.93;;;;;;;;;;5108180;28;20034;-72
2022/09/19 08:59:04;;;;;;;77.80;42.03;;;;;;;;;;5101695;27;20618;-71
2022/09/19 09:03:53;;;;;;;1.13;0.80;;;;;;;;;;5109789;27;20113;-72
2022/09/19 09:06:35;;;;;;;1.45;0.52;;;;;;;;;;5110116;28;20049;-73
2022/09/19 09:09:13;;;;;;;1.77;0.70;;;;;;;;;;5110524;28;20445;-70
2022/09/19 09:14:46;;;;;;;2.78;1.00;;;;;;;;;;5088721;27;20382;-76
2022/09/19 09:17:12;;;;;;;2.70;1.13;;;;;;;;;;5083751;28;20035;-75
2022/09/19 09:20:01;;;;;;;1.63;0.70;;;;;;;;;;5074086;28;20029;-74
2022/09/19 09:24:38;;;;;;;3.78;0.63;;;;;;;;;;5067750;28;20111;-78
2022/09/19 09:27:45;;;;;;;1.05;0.75;;;;;;;;;;5110013;27;20930;-75
2022/09/19 09:30:16;;;;;;;1.52;0.60;;;;;;;;;;5105844;28;20040;-78
2022/09/19 09:32:45;;;;;;;1.73;0.75;;;;;;;;;;5099705;28;20111;-75
2022/09/19 09:35:16;;;;;;;1.60;0.73;;;;;;;;;;5101596;28;20029;-76
2022/09/19 09:37:45;;;;;;;1.63;0.70;;;;;;;;;;5099029;28;20024;-71
2022/09/19 09:40:12;;;;;;;1.33;0.40;;;;;;;;;;5088503;28;20026;-72
2022/09/19 09:42:41;;;;;;;2.75;1.00;;;;;;;;;;5093154;28;20481;-72
2022/09/19 09:45:21;;;;;;;3.65;0.80;;;;;;;;;;5102405;28;20086;-72
2022/09/19 09:48:05;;;;;;;2.35;0.70;;;;;;;;;;5109631;28;20047;-71
2022/09/19 09:51:04;;;;;;;1.77;0.70;;;;;;;;;;5107543;27;20586;-70
2022/09/19 09:56:49;;;;;;;3.05;0.82;;;;;;;;;;5108291;27;20613;-67
2022/09/19 10:06:33;;;;;;;4.03;0.95;;;;;;;;;;5068903;28;20450;-68
2022/09/19 10:09:09;;;;;;;1.55;0.55;;;;;;;;;;5069587;28;20147;-69
2022/09/19 10:12:15;;;;;;;1.23;0.60;;;;;;;;;;5093324;27;20535;-75
2022/09/19 10:16:17;;;;;;;1.73;0.60;;;;;;;;;;5099014;27;20394;-76
2022/09/19 10:18:46;;;;;;;1.88;0.88;;;;;;;;;;5087593;28;20564;-74
2022/09/19 10:23:01;;;;;;;0.60;0.50;;;;;;;;;;5108454;27;20112;-71
2022/09/19 10:27:33;;;;;;;1.33;0.60;;;;;;;;;;5107924;27;20609;-72
2022/09/19 10:30:18;;;;;;;1.65;0.70;;;;;;;;;;5094178;28;20020;-72
2022/09/19 10:32:45;;;;;;;0.80;0.35;;;;;;;;;;5087685;28;20544;-73
2022/09/19 10:35:30;;;;;;;1.08;0.50;;;;;;;;;;5087517;28;20028;-75
2022/09/19 10:38:00;;;;;;;2.22;0.70;;;;;;;;;;5093965;28;20027;-74
2022/09/19 10:40:27;;;;;;;1.30;0.50;;;;;;;;;;5096550;28;20484;-75
2022/09/19 10:42:58;;;;;;;1.95;0.45;;;;;;;;;;5105232;28;20548;-75
2022/09/19 10:47:47;;;;;;;2.90;1.00;;;;;;;;;;5086670;27;20916;-76
2022/09/19 10:50:15;;;;;;;6.32;2.60;;;;;;;;;;5087675;28;20028;-73
2022/09/19 10:53:56;;;;;;;8.57;3.05;;;;;;;;;;5108358;27;20464;-74
2022/09/19 10:56:23;;;;;;;10.82;4.60;;;;;;;;;;5096493;28;20024;-73
2022/09/19 10:58:59;;;;;;;9.30;4.15;;;;;;;;;;5101543;28;20111;-76
2022/09/19 11:01:26;;;;;;;8.70;3.55;;;;;;;;;;5089948;28;20024;-73
2022/09/19 11:04:03;;;;;;;3.78;1.52;;;;;;;;;;5089712;28;20028;-73
2022/09/19 11:06:30;;;;;;;3.85;1.13;;;;;;;;;;5089194;28;20024;-73
2022/09/19 11:08:56;;;;;;;2.45;0.80;;;;;;;;;;5101684;28;20376;-74
2022/09/19 11:11:33;;;;;;;2.88;1.20;;;;;;;;;;5109988;28;20023;-73
2022/09/19 11:14:37;;;;;;;8.68;2.83;;;;;;;;;;5107689;27;20589;-73
2022/09/19 11:17:22;;;;;;;6.03;1.88;;;;;;;;;;5103305;27;20573;-73
2022/09/19 11:22:25;;;;;;;2.75;0.77;;;;;;;;;;5100785;27;20404;-73
2022/09/19 11:25:32;;;;;;;5.05;1.70;;;;;;;;;;5086169;27;20386;-74
2022/09/19 11:28:01;;;;;;;2.65;0.75;;;;;;;;;;5087502;28;20043;-72
2022/09/19 11:30:27;;;;;;;1.85;0.45;;;;;;;;;;5086686;28;20111;-81
2022/09/19 11:33:16;;;;;;;4.25;2.45;;;;;;;;;;5067298;28;20592;-76
2022/09/19 11:37:38;;;;;;;2.58;0.90;;;;;;;;;;5069054;28;20602;-74
2022/09/19 11:40:19;;;;;;;1.15;0.55;;;;;;;;;;5069678;28;20035;-74
2022/09/19 11:42:54;;;;;;;2.42;0.80;;;;;;;;;;5070209;28;20021;-75
2022/09/19 11:45:22;;;;;;;1.17;0.50;;;;;;;;;;5069927;28;20025;-70
2022/09/19 11:48:00;;;;;;;0.60;0.35;;;;;;;;;;5066170;28;20372;-72
2022/09/19 11:50:39;;;;;;;7.35;3.63;;;;;;;;;;5069153;28;20436;-72
2022/09/19 11:53:11;;;;;;;13.80;6.38;;;;;;;;;;5069740;28;20024;-71
2022/09/19 11:55:43;;;;;;;8.55;2.05;;;;;;;;;;5055399;28;20032;-74
2022/09/19 11:58:24;;;;;;;1.95;0.60;;;;;;;;;;5058462;28;20029;-77
2022/09/19 12:00:50;;;;;;;1.90;0.70;;;;;;;;;;5047895;28;20473;-72
2022/09/19 12:03:29;;;;;;;1.52;0.65;;;;;;;;;;5046417;28;20137;-76
2022/09/19 12:06:05;;;;;;;0.77;0.50;;;;;;;;;;5047509;28;20028;-72
2022/09/19 12:08:43;;;;;;;1.00;0.50;;;;;;;;;;5049832;28;20100;-73
2022/09/19 12:11:14;;;;;;;0.90;0.47;;;;;;;;;;5049933;28;20486;-72
2022/09/19 12:13:50;;;;;;;3.80;0.70;;;;;;;;;;5049623;28;20067;-69
2022/09/19 12:16:21;;;;;;;1.98;0.63;;;;;;;;;;5048568;28;20067;-73
2022/09/19 12:18:55;;;;;;;0.95;0.52;;;;;;;;;;5061717;28;20022;-71
2022/09/19 12:21:26;;;;;;;3.75;1.38;;;;;;;;;;5054337;28;20561;-74
2022/09/19 12:26:53;;;;;;;4.03;2.00;;;;;;;;;;5050318;28;20040;-74
2022/09/19 12:29:19;;;;;;;6.50;2.53;;;;;;;;;;5057368;28;20024;-73
2022/09/19 12:31:53;;;;;;;8.38;2.65;;;;;;;;;;5056635;28;20044;-72
2022/09/19 12:34:23;;;;;;;2.15;0.80;;;;;;;;;;5056338;28;20496;-73
2022/09/19 12:36:53;;;;;;;2.65;1.38;;;;;;;;;;5058083;28;20075;-73
2022/09/19 12:39:42;;;;;;;2.03;1.10;;;;;;;;;;5060913;28;20021;-74
2022/09/19 12:42:27;;;;;;;3.78;2.20;;;;;;;;;;5048360;28;20165;-70
2022/09/19 12:44:53;;;;;;;5.97;0.80;;;;;;;;;;5053200;28;20025;-72
2022/09/19 12:47:20;;;;;;;1.17;0.60;;;;;;;;;;5044255;28;20104;-73
2022/09/19 12:49:58;;;;;;;3.85;1.80;;;;;;;;;;5048332;28;20048;-72
2022/09/19 12:52:38;;;;;;;2.05;1.00;;;;;;;;;;5048295;28;20021;-72
2022/09/19 12:55:25;;;;;;;2.17;0.50;;;;;;;;;;5050733;28;20033;-72
2022/09/19 12:57:55;;;;;;;1.17;0.70;;;;;;;;;;5053311;28;20037;-72
2022/09/19 13:00:22;;;;;;;1.48;0.73;;;;;;;;;;5053104;28;20056;-72
2022/09/19 13:02:51;;;;;;;0.47;0.45;;;;;;;;;;5053350;28;20040;-73
2022/09/19 13:05:26;;;;;;;0.88;0.30;;;;;;;;;;5053628;28;20025;-73
2022/09/19 13:07:55;;;;;;;4.90;1.30;;;;;;;;;;5053968;28;20382;-72
2022/09/19 13:10:24;;;;;;;0.65;0.30;;;;;;;;;;5053700;28;20163;-73
2022/09/19 13:13:00;;;;;;;1.70;0.43;;;;;;;;;;5053989;28;20044;-73
2022/09/19 13:15:31;;;;;;;1.48;0.40;;;;;;;;;;5054233;28;20130;-72
2022/09/19 13:23:30;;;;;;;1.67;0.60;;;;;;;;;;5053274;28;20120;-73
2022/09/19 13:25:57;;;;;;;1.23;0.40;;;;;;;;;;5053673;28;20039;-72
2022/09/19 13:28:24;;;;;;;1.10;0.50;;;;;;;;;;5053614;28;20036;-72
2022/09/19 13:31:22;;;;;;;1.35;0.50;;;;;;;;;;5053058;28;20025;-73
2022/09/19 13:33:58;;;;;;;2.40;0.70;;;;;;;;;;5041023;28;20127;-73
2022/09/19 13:36:24;;;;;;;1.50;0.55;;;;;;;;;;5054819;28;20049;-73
2022/09/19 13:38:55;;;;;;;0.75;0.30;;;;;;;;;;5054966;28;20101;-73
2022/09/19 13:41:34;;;;;;;1.27;0.60;;;;;;;;;;5055335;28;20021;-73
2022/09/19 13:44:09;;;;;;;4.47;2.42;;;;;;;;;;5054731;28;20021;-73
2022/09/19 13:46:53;;;;;;;1.48;0.80;;;;;;;;;;5055403;28;20033;-72
2022/09/19 13:49:31;;;;;;;3.05;0.68;;;;;;;;;;5055103;28;20037;-72
2022/09/19 13:52:04;;;;;;;2.90;1.48;;;;;;;;;;5054663;28;20024;-73
2022/09/19 13:54:50;;;;;;;6.60;2.58;;;;;;;;;;5055006;28;20477;-73
2022/09/19 13:57:20;;;;;;;2.03;0.80;;;;;;;;;;5041831;28;20049;-73
2022/09/19 13:59:58;;;;;;;0.40;0.40;;;;;;;;;;5031900;28;20096;-73
2022/09/19 14:02:44;;;;;;;2.95;1.33;;;;;;;;;;5032174;28;20505;-73
2022/09/19 14:05:10;;;;;;;1.10;0.50;;;;;;;;;;5030073;28;20018;-73
2022/09/19 14:07:57;;;;;;;0.80;0.40;;;;;;;;;;5032507;28;20411;-73
2022/09/19 14:10:23;;;;;;;0.60;0.40;;;;;;;;;;5033360;28;20013;-73
2022/09/19 14:12:54;;;;;;;1.20;0.57;;;;;;;;;;5033094;28;20028;-73
2022/09/19 14:15:29;;;;;;;2.28;0.73;;;;;;;;;;5032244;28;20019;-72
2022/09/19 14:18:11;;;;;;;1.92;0.65;;;;;;;;;;5031250;28;20048;-73
2022/09/19 14:20:54;;;;;;;6.50;0.50;;;;;;;;;;5030929;28;20417;-73
2022/09/19 14:23:26;;;;;;;0.63;0.20;;;;;;;;;;5041658;28;20048;-73
2022/09/19 14:25:59;;;;;;;0.73;0.30;;;;;;;;;;5051960;28;20032;-73
2022/09/19 14:28:38;;;;;;;1.63;0.40;;;;;;;;;;5051936;28;20179;-73
2022/09/19 14:31:05;;;;;;;1.30;0.40;;;;;;;;;;5053600;28;20431;-73
2022/09/19 14:33:43;;;;;;;1.05;0.43;;;;;;;;;;5052062;28;20021;-73
2022/09/19 14:36:27;;;;;;;0.50;0.40;;;;;;;;;;5053557;28;20067;-73
2022/09/19 14:39:12;;;;;;;1.70;0.45;;;;;;;;;;5054394;28;20017;-73
2022/09/19 14:41:38;;;;;;;0.50;0.30;;;;;;;;;;5053647;28;20501;-73
2022/09/19 14:44:23;;;;;;;2.55;0.60;;;;;;;;;;5054222;28;20029;-73
2022/09/19 14:47:15;;;;;;;20.55;17.80;;;;;;;;;;5053942;28;20496;-73
2022/09/19 14:49:42;;;;;;;;;;;;;;;;;;5046069;28;20524;-73
2022/09/19 14:52:20;;;;;;;4.97;2.90;;;;;;;;;;5052584;28;19912;-72
2022/09/19 14:54:47;;;;;;;2.00;0.98;;;;;;;;;;5053583;28;20021;-74
2022/09/19 14:57:20;;;;;;;1.35;0.60;;;;;;;;;;5053694;28;20112;-73
2022/09/19 14:59:48;;;;;;;0.60;0.45;;;;;;;;;;5053874;28;20060;-74
2022/09/19 15:02:18;;;;;;;0.73;0.25;;;;;;;;;;5052035;28;20029;-74
2022/09/19 15:04:45;;;;;;;1.38;0.50;;;;;;;;;;5053691;28;20025;-73
2022/09/19 15:07:11;;;;;;;2.42;0.40;;;;;;;;;;5053852;28;20021;-73
2022/09/19 15:09:38;;;;;;;1.23;0.57;;;;;;;;;;5053059;28;20032;-74
2022/09/19 15:12:12;;;;;;;2.15;0.63;;;;;;;;;;5053311;28;20025;-73
2022/09/19 15:14:42;;;;;;;1.70;0.70;;;;;;;;;;5053792;28;20020;-73
2022/09/19 15:17:10;;;;;;;1.83;0.55;;;;;;;;;;5053036;28;20060;-73
2022/09/19 15:19:46;;;;;;;1.80;0.70;;;;;;;;;;5053422;28;20094;-73
2022/09/19 15:22:23;;;;;;;1.80;0.60;;;;;;;;;;5053248;28;20362;-72
2022/09/19 15:24:50;;;;;;;0.60;0.50;;;;;;;;;;5053471;28;20378;-73
2022/09/19 15:27:20;;;;;;;0.43;0.35;;;;;;;;;;5053522;28;20477;-73
2022/09/19 15:29:48;;;;;;;1.05;0.40;;;;;;;;;;5052913;28;20033;-73
2022/09/19 15:32:15;;;;;;;2.30;0.70;;;;;;;;;;5053455;28;20044;-73
2022/09/19 15:34:41;;;;;;;1.42;0.50;;;;;;;;;;5053237;28;20021;-73
2022/09/19 15:37:17;;;;;;;2.58;0.80;;;;;;;;;;5052631;28;20517;-73
2022/09/19 15:39:43;;;;;;;0.32;0.25;;;;;;;;;;5053549;28;20021;-74
2022/09/19 15:42:12;;;;;;;1.27;0.55;;;;;;;;;;5053232;28;20095;-73
2022/09/19 15:44:42;;;;;;;0.75;0.50;;;;;;;;;;5052809;28;20594;-73
2022/09/19 15:47:12;;;;;;;0.85;0.55;;;;;;;;;;5053524;28;20029;-72
2022/09/19 15:49:40;;;;;;;1.95;0.43;;;;;;;;;;5053818;28;20017;-73
2022/09/19 15:52:09;;;;;;;1.60;0.47;;;;;;;;;;5052715;28;20476;-73
2022/09/19 15:54:39;;;;;;;1.95;0.80;;;;;;;;;;5053119;28;20032;-73
2022/09/19 15:57:31;;;;;;;1.02;0.75;;;;;;;;;;5053495;28;20366;-73
2022/09/19 15:59:59;;;;;;;2.58;1.08;;;;;;;;;;5051856;28;20485;-73
2022/09/19 16:02:30;;;;;;;1.85;0.63;;;;;;;;;;5053013;28;20049;-74
2022/09/19 16:05:06;;;;;;;1.27;0.63;;;;;;;;;;5051789;28;20432;-73
2022/09/19 16:10:25;;;;;;;2.97;0.90;;;;;;;;;;5053145;28;20064;-72
2022/09/19 16:12:52;;;;;;;2.00;1.05;;;;;;;;;;5052803;28;20025;-74
2022/09/19 16:15:18;;;;;;;7.30;1.77;;;;;;;;;;5052870;28;20509;-74
2022/09/19 16:17:47;;;;;;;3.35;1.38;;;;;;;;;;5053100;28;20043;-73
2022/09/19 16:20:32;;;;;;;3.15;1.40;;;;;;;;;;5052518;28;20028;-72
2022/09/19 16:23:01;;;;;;;2.22;1.10;;;;;;;;;;5054340;28;20082;-72